Time;durP1;ratioP1;P1;durP2;ratioP2;P2;SDS_P1;SDS_P2;PMS_P1;PMS_P2;Temp;Humidity;BMP_temperature;BMP_pressure;BME280_temperature;BME280_humidity;BME280_pressure;Samples;Min_cycle;Max_cycle;Signal;HPM_P1;HPM_P2
2023/07/01 00:01:22;;;;;;;;;;;;;;;;;;5049883;28;19982;-47
2023/07/01 05:08:21;;;;;;;;;;;;;;;;;;5062570;28;19931;-49
2023/07/01 05:10:46;;;;;;;;;;;;;;;;;;5068947;28;19919;-48
2023/07/01 05:13:12;;;;;;;;;;;;;;;;;;5068905;28;19927;-47
2023/07/01 05:15:38;;;;;;;;;;;;;;;;;;5069051;28;20357;-48
2023/07/01 05:18:04;;;;;;;;;;;;;;;;;;5068578;28;20013;-49
2023/07/01 05:20:30;;;;;;;;;;;;;;;;;;5068911;28;19943;-48
2023/07/01 05:22:57;;;;;;;;;;;;;;;;;;5068596;28;19962;-50
2023/07/01 05:25:23;;;;;;;;;;;;;;;;;;5058549;28;19942;-48
2023/07/01 05:27:49;;;;;;;;;;;;;;;;;;5049166;28;20019;-48
2023/07/01 05:30:15;;;;;;;;;;;;;;;;;;5066004;28;20317;-46
2023/07/01 05:32:42;;;;;;;;;;;;;;;;;;5068408;28;19930;-50
2023/07/01 05:35:07;;;;;;;;;;;;;;;;;;5071118;28;19966;-49
2023/07/01 05:37:33;;;;;;;;;;;;;;;;;;5068960;28;20002;-51
2023/07/01 05:39:59;;;;;;;;;;;;;;;;;;5065796;28;19946;-48
2023/07/01 05:42:25;;;;;;;;;;;;;;;;;;5053228;28;19947;-52
2023/07/01 05:44:51;;;;;;;;;;;;;;;;;;5050201;28;19963;-51
2023/07/01 05:47:17;;;;;;;;;;;;;;;;;;5050013;28;19919;-49
2023/07/01 05:49:43;;;;;;;;;;;;;;;;;;5049607;28;19923;-48
2023/07/01 05:52:09;;;;;;;;;;;;;;;;;;5068723;28;19927;-51
2023/07/01 05:54:35;;;;;;;;;;;;;;;;;;5069739;28;19923;-50
2023/07/01 05:57:01;;;;;;;;;;;;;;;;;;5069488;28;20057;-51
2023/07/01 05:59:27;;;;;;;;;;;;;;;;;;5069910;28;19935;-51
2023/07/01 06:01:53;;;;;;;;;;;;;;;;;;5071103;28;20023;-49
2023/07/01 06:04:19;;;;;;;;;;;;;;;;;;5079418;28;19927;-51
2023/07/01 06:06:44;;;;;;;;;;;;;;;;;;5089074;28;19988;-53
2023/07/01 06:09:10;;;;;;;;;;;;;;;;;;5072687;28;19952;-48
2023/07/01 06:11:37;;;;;;;;;;;;;;;;;;5053210;28;19978;-47
2023/07/01 06:14:03;;;;;;;;;;;;;;;;;;5066069;28;19944;-47
2023/07/01 06:16:29;;;;;;;;;;;;;;;;;;5067911;28;19985;-47
2023/07/01 06:18:55;;;;;;;;;;;;;;;;;;5062975;28;19937;-52
2023/07/01 06:21:21;;;;;;;;;;;;;;;;;;5067322;28;20516;-47
2023/07/01 06:23:47;;;;;;;;;;;;;;;;;;5089059;28;19925;-51
2023/07/01 06:26:13;;;;;;;;;;;;;;;;;;5079878;28;19922;-51
2023/07/01 06:28:39;;;;;;;;;;;;;;;;;;5079025;28;19931;-48
2023/07/01 06:31:05;;;;;;;;;;;;;;;;;;5060624;28;19939;-48
2023/07/01 06:33:31;;;;;;;;;;;;;;;;;;5071875;28;19933;-46
2023/07/01 06:35:57;;;;;;;;;;;;;;;;;;5080456;28;19923;-46
2023/07/01 06:38:23;;;;;;;;;;;;;;;;;;5073263;28;20010;-47
2023/07/01 06:40:49;;;;;;;;;;;;;;;;;;5075021;28;19950;-48
2023/07/01 06:43:15;;;;;;;;;;;;;;;;;;5078482;28;19908;-47
2023/07/01 06:45:41;;;;;;;;;;;;;;;;;;5089897;28;19908;-49
2023/07/01 06:48:07;;;;;;;;;;;;;;;;;;5089718;28;19915;-47
2023/07/01 06:50:34;;;;;;;;;;;;;;;;;;5089880;28;19912;-48
2023/07/01 06:53:00;;;;;;;;;;;;;;;;;;5089870;28;19961;-47
2023/07/01 06:55:26;;;;;;;;;;;;;;;;;;5090003;28;19912;-47
2023/07/01 06:57:52;;;;;;;;;;;;;;;;;;5089782;28;19908;-47
2023/07/01 07:00:18;;;;;;;;;;;;;;;;;;5090238;28;19908;-47
2023/07/01 07:02:44;;;;;;;;;;;;;;;;;;5089896;28;19912;-47
2023/07/01 07:05:10;;;;;;;;;;;;;;;;;;5089621;28;20402;-47
2023/07/01 07:07:36;;;;;;;;;;;;;;;;;;5068915;28;19920;-47
2023/07/01 07:10:02;;;;;;;;;;;;;;;;;;5068444;28;19917;-48
2023/07/01 07:12:27;;;;;;;;;;;;;;;;;;5069480;28;19908;-47
2023/07/01 07:14:53;;;;;;;;;;;;;;;;;;5069460;28;20032;-49
2023/07/01 07:17:19;;;;;;;;;;;;;;;;;;5069858;28;20011;-49
2023/07/01 07:19:45;;;;;;;;;;;;;;;;;;5069367;28;19912;-40
2023/07/01 07:22:11;;;;;;;;;;;;;;;;;;5069323;28;19935;-40
2023/07/01 07:24:37;;;;;;;;;;;;;;;;;;5069422;28;19908;-40
2023/07/01 07:27:03;;;;;;;;;;;;;;;;;;5069269;28;19908;-49
2023/07/01 07:29:29;;;;;;;;;;;;;;;;;;5063506;28;19940;-47
2023/07/01 07:31:55;;;;;;;;;;;;;;;;;;5053625;28;19917;-49
2023/07/01 07:34:21;;;;;;;;;;;;;;;;;;5049675;28;19959;-49
2023/07/01 07:36:47;;;;;;;;;;;;;;;;;;5062942;28;19951;-48
2023/07/01 07:39:13;;;;;;;;;;;;;;;;;;5069237;28;19912;-48
2023/07/01 07:41:39;;;;;;;;;;;;;;;;;;5069079;28;19962;-50
2023/07/01 07:44:05;;;;;;;;;;;;;;;;;;5069153;28;19978;-48
2023/07/01 07:46:31;;;;;;;;;;;;;;;;;;5069100;28;20324;-47
2023/07/01 07:48:57;;;;;;;;;;;;;;;;;;5069159;28;19908;-49
2023/07/01 07:51:23;;;;;;;;;;;;;;;;;;5069183;28;20395;-49
2023/07/01 07:53:49;;;;;;;;;;;;;;;;;;5070372;28;19998;-49
2023/07/01 07:56:15;;;;;;;;;;;;;;;;;;5071699;28;20003;-48
2023/07/01 07:58:41;;;;;;;;;;;;;;;;;;5083839;28;20011;-48
2023/07/01 08:01:07;;;;;;;;;;;;;;;;;;5072599;28;19970;-48
2023/07/01 08:03:33;;;;;;;;;;;;;;;;;;5069590;28;19916;-50
2023/07/01 08:05:58;;;;;;;;;;;;;;;;;;5068185;28;19912;-40
2023/07/01 08:08:24;;;;;;;;;;;;;;;;;;5070023;28;19917;-40
2023/07/01 08:10:53;;;;;;;;;;;;;;;;;;5069338;28;19913;-40
2023/07/01 08:13:18;;;;;;;;;;;;;;;;;;5070433;28;19915;-40
2023/07/01 08:15:44;;;;;;;;;;;;;;;;;;5069308;28;19916;-49
2023/07/01 08:18:11;;;;;;;;;;;;;;;;;;5069690;28;20007;-51
2023/07/01 08:20:38;;;;;;;;;;;;;;;;;;5070132;28;19912;-40
2023/07/01 08:23:04;;;;;;;;;;;;;;;;;;5067416;28;19959;-40
2023/07/01 08:25:30;;;;;;;;;;;;;;;;;;5064580;28;19964;-40
2023/07/01 08:27:56;;;;;;;;;;;;;;;;;;5056709;28;19938;-40
2023/07/01 08:30:22;;;;;;;;;;;;;;;;;;5067817;28;19923;-41
2023/07/01 08:32:48;;;;;;;;;;;;;;;;;;5069769;28;19912;-41
2023/07/01 08:35:14;;;;;;;;;;;;;;;;;;5063371;28;19923;-40
2023/07/01 08:37:40;;;;;;;;;;;;;;;;;;5069556;28;21461;-40
2023/07/01 08:40:06;;;;;;;;;;;;;;;;;;5064820;28;19912;-40
2023/07/01 08:42:32;;;;;;;;;;;;;;;;;;5068765;28;20041;-40
2023/07/01 08:44:58;;;;;;;;;;;;;;;;;;5070965;28;19946;-40
2023/07/01 08:47:24;;;;;;;;;;;;;;;;;;5071072;28;19909;-40
2023/07/01 08:49:50;;;;;;;;;;;;;;;;;;5071023;28;19913;-40
2023/07/01 08:52:16;;;;;;;;;;;;;;;;;;5069366;28;19916;-41
2023/07/01 08:54:42;;;;;;;;;;;;;;;;;;5071083;28;20011;-40
2023/07/01 08:57:09;;;;;;;;;;;;;;;;;;5070605;28;19912;-40
2023/07/01 08:59:35;;;;;;;;;;;;;;;;;;5070673;28;19923;-40
2023/07/01 09:02:01;;;;;;;;;;;;;;;;;;5068569;28;20303;-41
2023/07/01 09:04:27;;;;;;;;;;;;;;;;;;5070065;28;19916;-42
2023/07/01 09:06:53;;;;;;;;;;;;;;;;;;5047861;28;20383;-40
2023/07/01 09:09:19;;;;;;;;;;;;;;;;;;5050557;28;20014;-40
2023/07/01 09:11:47;;;;;;;;;;;;;;;;;;5050469;28;19950;-42
2023/07/01 09:14:13;;;;;;;;;;;;;;;;;;5070318;28;19923;-41
2023/07/01 09:16:39;;;;;;;;;;;;;;;;;;5061030;28;20380;-40
2023/07/01 09:19:05;;;;;;;;;;;;;;;;;;5070353;28;20614;-40
2023/07/01 09:21:32;;;;;;;;;;;;;;;;;;5056557;28;20426;-41
2023/07/01 09:23:58;;;;;;;;;;;;;;;;;;5050423;28;19927;-40
2023/07/01 09:26:24;;;;;;;;;;;;;;;;;;5057890;28;19923;-41
2023/07/01 09:28:51;;;;;;;;;;;;;;;;;;5070389;28;19912;-41
2023/07/01 09:31:16;;;;;;;;;;;;;;;;;;5068864;28;19966;-41
2023/07/01 09:33:43;;;;;;;;;;;;;;;;;;5070172;28;19978;-41
2023/07/01 09:36:10;;;;;;;;;;;;;;;;;;5070141;28;19938;-41
2023/07/01 09:38:35;;;;;;;;;;;;;;;;;;5069881;28;19917;-40
2023/07/01 09:41:02;;;;;;;;;;;;;;;;;;5067620;28;19958;-41
2023/07/01 09:43:28;;;;;;;;;;;;;;;;;;5069880;28;20301;-40
2023/07/01 09:45:54;;;;;;;;;;;;;;;;;;5069526;28;19930;-40
2023/07/01 09:48:20;;;;;;;;;;;;;;;;;;5069994;28;19933;-40
2023/07/01 09:50:46;;;;;;;;;;;;;;;;;;5085245;28;19934;-40
2023/07/01 09:53:12;;;;;;;;;;;;;;;;;;5069819;28;19927;-40
2023/07/01 09:55:38;;;;;;;;;;;;;;;;;;5069395;28;19950;-41
2023/07/01 09:58:04;;;;;;;;;;;;;;;;;;5069496;28;19992;-40
2023/07/01 10:00:30;;;;;;;;;;;;;;;;;;5071477;28;19920;-41
2023/07/01 10:02:56;;;;;;;;;;;;;;;;;;5079977;28;20428;-41
2023/07/01 10:05:24;;;;;;;;;;;;;;;;;;5072735;28;20205;-40
2023/07/01 10:07:50;;;;;;;;;;;;;;;;;;5086636;28;20398;-40
2023/07/01 10:10:16;;;;;;;;;;;;;;;;;;5087937;28;20011;-41
2023/07/01 10:12:42;;;;;;;;;;;;;;;;;;5087992;28;19925;-40
2023/07/01 10:15:08;;;;;;;;;;;;;;;;;;5088059;28;19912;-41
2023/07/01 10:17:34;;;;;;;;;;;;;;;;;;5085541;28;20393;-42
2023/07/01 10:20:00;;;;;;;;;;;;;;;;;;5077533;28;19922;-41
2023/07/01 10:22:29;;;;;;;;;;;;;;;;;;5089218;28;19946;-41
2023/07/01 10:24:55;;;;;;;;;;;;;;;;;;5087071;28;20013;-40
2023/07/01 10:27:21;;;;;;;;;;;;;;;;;;5068805;28;19924;-40
2023/07/01 10:29:47;;;;;;;;;;;;;;;;;;5073212;28;20427;-40
2023/07/01 10:32:13;;;;;;;;;;;;;;;;;;5089321;28;19919;-40
2023/07/01 10:34:39;;;;;;;;;;;;;;;;;;5059296;28;19912;-40
2023/07/01 10:37:05;;;;;;;;;;;;;;;;;;5048904;28;19992;-40
2023/07/01 10:39:31;;;;;;;;;;;;;;;;;;5053298;28;19993;-40
2023/07/01 10:41:57;;;;;;;;;;;;;;;;;;5076580;28;20081;-40
2023/07/01 10:44:23;;;;;;;;;;;;;;;;;;5066359;28;20095;-40
2023/07/01 10:46:49;;;;;;;;;;;;;;;;;;5067440;28;19926;-40
2023/07/01 10:49:15;;;;;;;;;;;;;;;;;;5061836;28;20342;-40
2023/07/01 10:51:41;;;;;;;;;;;;;;;;;;5047055;28;20021;-40
2023/07/01 10:54:08;;;;;;;;;;;;;;;;;;5047170;28;19919;-40
2023/07/01 10:56:34;;;;;;;;;;;;;;;;;;5061004;28;19931;-40
2023/07/01 10:59:01;;;;;;;;;;;;;;;;;;5067148;28;19930;-41
2023/07/01 11:01:27;;;;;;;;;;;;;;;;;;5072663;28;19925;-40
2023/07/01 11:03:53;;;;;;;;;;;;;;;;;;5063794;28;19934;-40
2023/07/01 11:06:20;;;;;;;;;;;;;;;;;;5065801;28;19927;-40
2023/07/01 11:08:46;;;;;;;;;;;;;;;;;;5067072;28;19955;-41
2023/07/01 11:11:12;;;;;;;;;;;;;;;;;;5057296;28;19931;-40
2023/07/01 11:13:38;;;;;;;;;;;;;;;;;;5044896;28;20412;-41
2023/07/01 11:16:04;;;;;;;;;;;;;;;;;;5044923;28;19931;-40
2023/07/01 11:18:29;;;;;;;;;;;;;;;;;;5060175;28;19923;-39
2023/07/01 11:20:55;;;;;;;;;;;;;;;;;;5060199;28;19950;-39
2023/07/01 11:23:21;;;;;;;;;;;;;;;;;;5053489;28;20025;-39
2023/07/01 11:25:47;;;;;;;;;;;;;;;;;;5056654;28;20139;-39
2023/07/01 11:28:13;;;;;;;;;;;;;;;;;;5075240;28;19927;-39
2023/07/01 11:30:40;;;;;;;;;;;;;;;;;;5058643;28;19926;-39
2023/07/01 11:33:07;;;;;;;;;;;;;;;;;;5061787;28;19980;-39
2023/07/01 11:35:33;;;;;;;;;;;;;;;;;;5058076;28;19923;-39
2023/07/01 11:37:59;;;;;;;;;;;;;;;;;;5076732;28;19930;-39
2023/07/01 11:40:25;;;;;;;;;;;;;;;;;;5047667;28;19931;-39
2023/07/01 11:42:50;;;;;;;;;;;;;;;;;;5060977;28;19973;-39
2023/07/01 11:45:16;;;;;;;;;;;;;;;;;;5051113;28;19927;-39
2023/07/01 11:47:42;;;;;;;;;;;;;;;;;;5061943;28;19924;-39
2023/07/01 11:50:08;;;;;;;;;;;;;;;;;;5051870;28;19946;-40
2023/07/01 11:52:34;;;;;;;;;;;;;;;;;;5064982;28;20115;-39
2023/07/01 11:55:00;;;;;;;;;;;;;;;;;;5066924;28;19927;-39
2023/07/01 11:57:27;;;;;;;;;;;;;;;;;;5065109;28;20402;-39
2023/07/01 11:59:53;;;;;;;;;;;;;;;;;;5063427;28;19931;-39
2023/07/01 12:02:19;;;;;;;;;;;;;;;;;;5068299;28;19953;-39
2023/07/01 12:04:45;;;;;;;;;;;;;;;;;;5042781;28;19935;-39
2023/07/01 12:07:11;;;;;;;;;;;;;;;;;;5054034;28;20412;-39
2023/07/01 12:09:37;;;;;;;;;;;;;;;;;;5066849;28;20012;-39
2023/07/01 12:12:03;;;;;;;;;;;;;;;;;;5065482;28;20020;-39
2023/07/01 12:14:29;;;;;;;;;;;;;;;;;;5054151;28;20397;-39
2023/07/01 12:16:55;;;;;;;;;;;;;;;;;;5062139;28;19920;-39
2023/07/01 12:19:21;;;;;;;;;;;;;;;;;;5051843;28;19927;-39
2023/07/01 12:21:47;;;;;;;;;;;;;;;;;;5039019;28;19998;-39
2023/07/01 12:24:13;;;;;;;;;;;;;;;;;;5062500;28;19919;-39
2023/07/01 12:26:39;;;;;;;;;;;;;;;;;;5058754;28;19954;-39
2023/07/01 12:29:05;;;;;;;;;;;;;;;;;;5067193;28;19913;-39
2023/07/01 12:31:30;;;;;;;;;;;;;;;;;;5067165;28;19927;-39
2023/07/01 12:33:56;;;;;;;;;;;;;;;;;;5067548;28;19988;-40
2023/07/01 12:36:22;;;;;;;;;;;;;;;;;;5068603;28;19931;-39
2023/07/01 12:38:48;;;;;;;;;;;;;;;;;;5048875;28;19984;-39
2023/07/01 12:41:14;;;;;;;;;;;;;;;;;;5053673;28;20063;-39
2023/07/01 12:43:40;;;;;;;;;;;;;;;;;;5066587;28;19927;-39
2023/07/01 12:46:06;;;;;;;;;;;;;;;;;;5057060;28;19931;-39
2023/07/01 12:48:32;;;;;;;;;;;;;;;;;;5064163;28;19980;-40
2023/07/01 12:50:58;;;;;;;;;;;;;;;;;;5066402;28;19966;-39
2023/07/01 12:53:24;;;;;;;;;;;;;;;;;;5065919;28;19919;-39
2023/07/01 12:55:49;;;;;;;;;;;;;;;;;;5066024;28;19926;-39
2023/07/01 12:58:16;;;;;;;;;;;;;;;;;;5066601;28;20053;-40
2023/07/01 13:00:41;;;;;;;;;;;;;;;;;;5066622;28;19986;-40
2023/07/01 13:03:07;;;;;;;;;;;;;;;;;;5061882;28;20440;-39
2023/07/01 13:05:33;;;;;;;;;;;;;;;;;;5048599;28;20394;-40
2023/07/01 13:08:00;;;;;;;;;;;;;;;;;;5047307;28;19948;-40
2023/07/01 13:10:27;;;;;;;;;;;;;;;;;;5047690;28;19928;-40
2023/07/01 13:12:53;;;;;;;;;;;;;;;;;;5047371;28;20018;-40
2023/07/01 13:15:18;;;;;;;;;;;;;;;;;;5047363;28;20022;-40
2023/07/01 13:17:45;;;;;;;;;;;;;;;;;;5047755;28;19919;-39
2023/07/01 13:20:11;;;;;;;;;;;;;;;;;;5047329;28;19917;-39
2023/07/01 13:22:37;;;;;;;;;;;;;;;;;;5046785;28;20047;-39
2023/07/01 13:25:03;;;;;;;;;;;;;;;;;;5047983;28;19919;-40
2023/07/01 13:27:29;;;;;;;;;;;;;;;;;;5047088;28;19919;-40
2023/07/01 13:29:55;;;;;;;;;;;;;;;;;;5046879;28;19923;-41
2023/07/01 13:32:21;;;;;;;;;;;;;;;;;;5049418;28;19947;-40
2023/07/01 13:34:47;;;;;;;;;;;;;;;;;;5068157;28;19931;-40
2023/07/01 13:37:13;;;;;;;;;;;;;;;;;;5068048;28;19930;-40
2023/07/01 13:39:39;;;;;;;;;;;;;;;;;;5067947;28;19919;-40
2023/07/01 13:42:05;;;;;;;;;;;;;;;;;;5068640;28;19947;-40
2023/07/01 13:44:31;;;;;;;;;;;;;;;;;;5068458;28;19974;-40
2023/07/01 13:46:57;;;;;;;;;;;;;;;;;;5067842;28;20052;-40
2023/07/01 13:49:23;;;;;;;;;;;;;;;;;;5065131;28;19974;-40
2023/07/01 13:51:49;;;;;;;;;;;;;;;;;;5067495;28;19930;-40
2023/07/01 13:54:15;;;;;;;;;;;;;;;;;;5066706;28;19923;-40
2023/07/01 13:56:41;;;;;;;;;;;;;;;;;;5067219;28;20080;-40
2023/07/01 13:59:07;;;;;;;;;;;;;;;;;;5067698;28;19920;-40
2023/07/01 14:01:33;;;;;;;;;;;;;;;;;;5067795;28;19938;-40
2023/07/01 14:04:01;;;;;;;;;;;;;;;;;;5067808;28;20420;-40
2023/07/01 14:06:30;;;;;;;;;;;;;;;;;;5067969;28;19919;-41
2023/07/01 14:08:56;;;;;;;;;;;;;;;;;;5067541;28;20027;-40
2023/07/01 14:11:26;;;;;;;;;;;;;;;;;;5067530;28;20014;-40
2023/07/01 14:13:53;;;;;;;;;;;;;;;;;;5067799;28;19923;-40
2023/07/01 14:16:19;;;;;;;;;;;;;;;;;;5068000;28;19919;-40
2023/07/01 14:18:45;;;;;;;;;;;;;;;;;;5067623;28;19923;-40
2023/07/01 14:21:12;;;;;;;;;;;;;;;;;;5066906;28;19982;-40
2023/07/01 14:23:38;;;;;;;;;;;;;;;;;;5067404;28;19926;-41
2023/07/01 14:26:09;;;;;;;;;;;;;;;;;;5068070;28;20005;-40
2023/07/01 14:28:35;;;;;;;;;;;;;;;;;;5067473;28;20022;-40
2023/07/01 14:31:07;;;;;;;;;;;;;;;;;;5068066;28;19992;-40
2023/07/01 14:33:33;;;;;;;;;;;;;;;;;;5067909;28;20359;-42
2023/07/01 14:35:58;;;;;;;;;;;;;;;;;;5067603;28;19991;-41
2023/07/01 14:38:24;;;;;;;;;;;;;;;;;;5067355;28;20448;-41
2023/07/01 14:40:50;;;;;;;;;;;;;;;;;;5067281;28;19939;-43
2023/07/01 14:43:16;;;;;;;;;;;;;;;;;;5067493;28;19989;-49
2023/07/01 14:45:42;;;;;;;;;;;;;;;;;;5066071;28;19912;-47
2023/07/01 14:48:08;;;;;;;;;;;;;;;;;;5066417;28;19908;-49
2023/07/01 14:50:34;;;;;;;;;;;;;;;;;;5067634;28;19973;-47
2023/07/01 14:53:01;;;;;;;;;;;;;;;;;;5066289;28;19913;-49
2023/07/01 14:55:27;;;;;;;;;;;;;;;;;;5067052;28;19956;-46
2023/07/01 14:57:53;;;;;;;;;;;;;;;;;;5067058;28;19939;-49
2023/07/01 15:00:19;;;;;;;;;;;;;;;;;;5065988;28;19935;-50
2023/07/01 15:02:45;;;;;;;;;;;;;;;;;;5069546;28;19912;-50
2023/07/01 15:05:11;;;;;;;;;;;;;;;;;;5073435;28;19909;-48
2023/07/01 15:07:37;;;;;;;;;;;;;;;;;;5051858;28;19954;-46
2023/07/01 15:10:03;;;;;;;;;;;;;;;;;;5065876;28;20021;-49
2023/07/01 15:12:29;;;;;;;;;;;;;;;;;;5071889;28;19927;-48
2023/07/01 15:14:55;;;;;;;;;;;;;;;;;;5072421;28;20346;-50
2023/07/01 15:17:21;;;;;;;;;;;;;;;;;;5072381;28;20029;-51
2023/07/01 15:19:47;;;;;;;;;;;;;;;;;;5072640;28;19926;-48
2023/07/01 15:22:14;;;;;;;;;;;;;;;;;;5072221;28;20492;-49
2023/07/01 15:24:40;;;;;;;;;;;;;;;;;;5072186;28;19923;-49
2023/07/01 15:27:07;;;;;;;;;;;;;;;;;;5071901;28;19973;-48
2023/07/01 15:29:33;;;;;;;;;;;;;;;;;;5071877;28;19963;-48
2023/07/01 15:31:59;;;;;;;;;;;;;;;;;;5071885;28;19950;-48
2023/07/01 15:34:24;;;;;;;;;;;;;;;;;;5072150;28;20020;-46
2023/07/01 15:36:50;;;;;;;;;;;;;;;;;;5071305;28;20255;-50
2023/07/01 15:39:16;;;;;;;;;;;;;;;;;;5072178;28;19923;-46
2023/07/01 15:41:42;;;;;;;;;;;;;;;;;;5068214;28;20045;-47
2023/07/01 15:44:08;;;;;;;;;;;;;;;;;;5077617;28;19967;-50
2023/07/01 15:46:35;;;;;;;;;;;;;;;;;;5093455;28;19912;-49
2023/07/01 15:49:01;;;;;;;;;;;;;;;;;;5070610;28;20338;-51
2023/07/01 15:51:27;;;;;;;;;;;;;;;;;;5079751;28;19970;-49
2023/07/01 15:53:53;;;;;;;;;;;;;;;;;;5075350;28;19916;-49
2023/07/01 15:56:19;;;;;;;;;;;;;;;;;;5082274;28;19918;-48
2023/07/01 15:58:45;;;;;;;;;;;;;;;;;;5075430;28;20076;-46
2023/07/01 16:01:11;;;;;;;;;;;;;;;;;;5057538;28;19973;-48
2023/07/01 16:03:37;;;;;;;;;;;;;;;;;;5064207;28;19931;-50
2023/07/01 16:06:04;;;;;;;;;;;;;;;;;;5071899;28;20256;-48
2023/07/01 16:08:33;;;;;;;;;;;;;;;;;;5071094;28;20402;-45
2023/07/01 16:10:59;;;;;;;;;;;;;;;;;;5068990;28;20029;-49
2023/07/01 16:13:24;;;;;;;;;;;;;;;;;;5072777;28;20061;-49
2023/07/01 16:15:50;;;;;;;;;;;;;;;;;;5069225;28;19916;-46
2023/07/01 16:18:16;;;;;;;;;;;;;;;;;;5071832;28;19926;-49
2023/07/01 16:20:42;;;;;;;;;;;;;;;;;;5068911;28;20417;-48
2023/07/01 16:23:08;;;;;;;;;;;;;;;;;;5067933;28;19972;-47
2023/07/01 16:25:34;;;;;;;;;;;;;;;;;;5069215;28;20377;-51
2023/07/01 16:28:00;;;;;;;;;;;;;;;;;;5070136;28;19912;-47
2023/07/01 16:30:26;;;;;;;;;;;;;;;;;;5067317;28;19973;-48
2023/07/01 16:32:52;;;;;;;;;;;;;;;;;;5068925;28;20042;-47
2023/07/01 16:35:18;;;;;;;;;;;;;;;;;;5069916;28;19930;-48
2023/07/01 16:37:43;;;;;;;;;;;;;;;;;;5078444;28;19931;-49
2023/07/01 16:40:09;;;;;;;;;;;;;;;;;;5068876;28;19954;-49
2023/07/01 16:42:36;;;;;;;;;;;;;;;;;;5067642;28;19960;-46
2023/07/01 16:45:03;;;;;;;;;;;;;;;;;;5048009;28;19939;-45
2023/07/01 16:47:29;;;;;;;;;;;;;;;;;;5065164;28;20372;-45
2023/07/01 16:49:55;;;;;;;;;;;;;;;;;;5092654;28;20022;-46
2023/07/01 16:52:21;;;;;;;;;;;;;;;;;;5069421;28;19930;-47
2023/07/01 16:54:47;;;;;;;;;;;;;;;;;;5069407;28;19927;-46
2023/07/01 16:57:13;;;;;;;;;;;;;;;;;;5088815;28;19926;-47
2023/07/01 16:59:41;;;;;;;;;;;;;;;;;;5080992;28;19931;-47
2023/07/01 17:02:07;;;;;;;;;;;;;;;;;;5067067;28;19966;-48
2023/07/01 17:04:34;;;;;;;;;;;;;;;;;;5066902;28;19916;-48
2023/07/01 17:07:00;;;;;;;;;;;;;;;;;;5055868;28;19973;-46
2023/07/01 17:09:25;;;;;;;;;;;;;;;;;;5065460;28;19985;-45
2023/07/01 17:11:51;;;;;;;;;;;;;;;;;;5067896;28;20009;-45
2023/07/01 17:14:17;;;;;;;;;;;;;;;;;;5067902;28;19935;-45
2023/07/01 17:16:43;;;;;;;;;;;;;;;;;;5066730;28;19934;-45
2023/07/01 17:19:09;;;;;;;;;;;;;;;;;;5064786;28;19923;-44
2023/07/01 17:21:35;;;;;;;;;;;;;;;;;;5069198;28;20342;-45
2023/07/01 17:24:01;;;;;;;;;;;;;;;;;;5082715;28;19962;-46
2023/07/01 17:26:27;;;;;;;;;;;;;;;;;;5067616;28;19923;-44
2023/07/01 17:28:54;;;;;;;;;;;;;;;;;;5068563;28;19931;-44
2023/07/01 17:31:20;;;;;;;;;;;;;;;;;;5064072;28;20298;-46
2023/07/01 17:33:46;;;;;;;;;;;;;;;;;;5065158;28;19931;-45
2023/07/01 17:36:12;;;;;;;;;;;;;;;;;;5062496;28;20025;-44
2023/07/01 17:38:38;;;;;;;;;;;;;;;;;;5063528;28;20033;-47
2023/07/01 17:41:04;;;;;;;;;;;;;;;;;;5059589;28;19986;-43
2023/07/01 17:43:30;;;;;;;;;;;;;;;;;;5049882;28;19913;-43
2023/07/01 17:45:56;;;;;;;;;;;;;;;;;;5062598;28;19927;-44
2023/07/01 17:48:23;;;;;;;;;;;;;;;;;;5064251;28;20188;-44
2023/07/01 17:50:49;;;;;;;;;;;;;;;;;;5057268;28;19963;-44
2023/07/01 17:53:16;;;;;;;;;;;;;;;;;;5059396;28;20437;-45
2023/07/01 17:55:41;;;;;;;;;;;;;;;;;;5053262;28;20015;-44
2023/07/01 17:58:07;;;;;;;;;;;;;;;;;;5067517;28;20149;-45
2023/07/01 18:00:33;;;;;;;;;;;;;;;;;;5062800;28;19953;-44
2023/07/01 18:02:59;;;;;;;;;;;;;;;;;;5063029;28;19947;-45
2023/07/01 18:05:25;;;;;;;;;;;;;;;;;;5053921;28;19951;-44
2023/07/01 18:07:51;;;;;;;;;;;;;;;;;;5057430;28;19939;-43
2023/07/01 18:10:17;;;;;;;;;;;;;;;;;;5057145;28;19939;-44
2023/07/01 18:12:43;;;;;;;;;;;;;;;;;;5060170;28;20613;-44
2023/07/01 18:15:09;;;;;;;;;;;;;;;;;;5056971;28;19958;-46
2023/07/01 18:17:35;;;;;;;;;;;;;;;;;;5060516;28;19937;-44
2023/07/01 18:20:01;;;;;;;;;;;;;;;;;;5057072;28;19934;-45
2023/07/01 18:22:27;;;;;;;;;;;;;;;;;;5057973;28;19985;-44
2023/07/01 18:24:53;;;;;;;;;;;;;;;;;;5058941;28;19931;-44
2023/07/01 18:27:20;;;;;;;;;;;;;;;;;;5063915;28;20455;-44
2023/07/01 18:29:46;;;;;;;;;;;;;;;;;;5056514;28;19939;-45
2023/07/01 18:32:12;;;;;;;;;;;;;;;;;;5052369;28;19931;-43
2023/07/01 18:34:38;;;;;;;;;;;;;;;;;;5059988;28;19985;-43
2023/07/01 18:37:04;;;;;;;;;;;;;;;;;;5074204;28;20581;-43
2023/07/01 18:39:30;;;;;;;;;;;;;;;;;;5059595;28;19923;-44
2023/07/01 18:41:56;;;;;;;;;;;;;;;;;;5064348;28;19947;-45
2023/07/01 18:44:22;;;;;;;;;;;;;;;;;;5045996;28;20328;-43
2023/07/01 18:46:48;;;;;;;;;;;;;;;;;;5073060;28;19950;-44
2023/07/01 18:49:14;;;;;;;;;;;;;;;;;;5060842;28;19916;-45
2023/07/01 18:51:41;;;;;;;;;;;;;;;;;;5075255;28;20398;-44
2023/07/01 18:54:07;;;;;;;;;;;;;;;;;;5059930;28;20646;-46
2023/07/01 18:56:33;;;;;;;;;;;;;;;;;;5063833;28;20068;-44
2023/07/01 18:58:59;;;;;;;;;;;;;;;;;;5075479;28;19927;-46
2023/07/01 19:01:25;;;;;;;;;;;;;;;;;;5054727;28;20426;-45
2023/07/01 19:03:51;;;;;;;;;;;;;;;;;;5046961;28;19946;-45
2023/07/01 19:06:17;;;;;;;;;;;;;;;;;;5062960;28;19927;-45
2023/07/01 19:08:43;;;;;;;;;;;;;;;;;;5080173;28;19945;-46
2023/07/01 19:11:11;;;;;;;;;;;;;;;;;;5045396;28;19923;-45
2023/07/01 19:13:37;;;;;;;;;;;;;;;;;;5063868;28;19966;-45
2023/07/01 19:16:03;;;;;;;;;;;;;;;;;;5057637;28;19923;-45
2023/07/01 19:18:29;;;;;;;;;;;;;;;;;;5066737;28;20029;-44
2023/07/01 19:20:55;;;;;;;;;;;;;;;;;;5067820;28;19973;-45
2023/07/01 19:23:20;;;;;;;;;;;;;;;;;;5064019;28;19919;-45
2023/07/01 19:25:46;;;;;;;;;;;;;;;;;;5063561;28;19913;-44
2023/07/01 19:28:15;;;;;;;;;;;;;;;;;;5063226;28;20468;-45
2023/07/01 19:30:41;;;;;;;;;;;;;;;;;;5073119;28;19977;-44
2023/07/01 19:33:08;;;;;;;;;;;;;;;;;;5074852;28;20319;-45
2023/07/01 19:35:35;;;;;;;;;;;;;;;;;;5059591;28;19952;-45
2023/07/01 19:38:01;;;;;;;;;;;;;;;;;;5075308;28;20017;-45
2023/07/01 19:40:27;;;;;;;;;;;;;;;;;;5076995;28;20025;-44
2023/07/01 19:42:53;;;;;;;;;;;;;;;;;;5057444;28;20516;-44
2023/07/01 19:45:19;;;;;;;;;;;;;;;;;;5058552;28;20302;-45
2023/07/01 19:47:45;;;;;;;;;;;;;;;;;;5064297;28;19946;-43
2023/07/01 19:50:12;;;;;;;;;;;;;;;;;;5062388;28;19982;-45
2023/07/01 19:52:38;;;;;;;;;;;;;;;;;;5052081;28;19938;-45
2023/07/01 19:55:05;;;;;;;;;;;;;;;;;;5067456;28;20301;-43
2023/07/01 19:57:32;;;;;;;;;;;;;;;;;;5064854;28;20371;-45
2023/07/01 19:59:57;;;;;;;;;;;;;;;;;;5067627;28;19931;-47
2023/07/01 20:02:23;;;;;;;;;;;;;;;;;;5052510;28;20326;-43
2023/07/01 20:04:49;;;;;;;;;;;;;;;;;;5062404;28;19927;-44
2023/07/01 20:07:15;;;;;;;;;;;;;;;;;;5067685;28;19931;-44
2023/07/01 20:09:43;;;;;;;;;;;;;;;;;;5066494;28;20306;-44
2023/07/01 20:12:09;;;;;;;;;;;;;;;;;;5077989;28;19923;-44
2023/07/01 20:14:35;;;;;;;;;;;;;;;;;;5080902;28;20302;-45
2023/07/01 20:17:02;;;;;;;;;;;;;;;;;;5066467;28;19984;-44
2023/07/01 20:19:28;;;;;;;;;;;;;;;;;;5066101;28;20360;-43
2023/07/01 20:21:54;;;;;;;;;;;;;;;;;;5067400;28;19950;-46
2023/07/01 20:24:20;;;;;;;;;;;;;;;;;;5066656;28;19927;-46
2023/07/01 20:26:46;;;;;;;;;;;;;;;;;;5068220;28;19923;-45
2023/07/01 20:29:12;;;;;;;;;;;;;;;;;;5067463;28;20235;-43
2023/07/01 20:31:38;;;;;;;;;;;;;;;;;;5070237;28;19938;-44
2023/07/01 20:34:04;;;;;;;;;;;;;;;;;;5070996;28;20398;-47
2023/07/01 20:36:30;;;;;;;;;;;;;;;;;;5067317;28;19926;-46
2023/07/01 20:38:57;;;;;;;;;;;;;;;;;;5065866;28;19933;-43
2023/07/01 20:41:23;;;;;;;;;;;;;;;;;;5080427;28;20449;-44
2023/07/01 20:43:49;;;;;;;;;;;;;;;;;;5048302;28;19927;-45
2023/07/01 20:46:15;;;;;;;;;;;;;;;;;;5051622;28;20000;-44
2023/07/01 20:48:41;;;;;;;;;;;;;;;;;;5047951;28;20045;-45
2023/07/01 20:51:07;;;;;;;;;;;;;;;;;;5058044;28;19928;-46
2023/07/01 20:53:33;;;;;;;;;;;;;;;;;;5053446;28;19927;-44
2023/07/01 20:55:58;;;;;;;;;;;;;;;;;;5033815;28;20058;-43
2023/07/01 20:58:24;;;;;;;;;;;;;;;;;;5079827;28;19930;-44
2023/07/01 21:00:50;;;;;;;;;;;;;;;;;;5073902;28;20428;-44
2023/07/01 21:03:16;;;;;;;;;;;;;;;;;;5061947;28;19934;-45
2023/07/01 21:05:42;;;;;;;;;;;;;;;;;;5065909;28;20436;-44
2023/07/01 21:08:08;;;;;;;;;;;;;;;;;;5065092;28;19934;-43
2023/07/01 21:10:35;;;;;;;;;;;;;;;;;;5066473;28;20483;-44
2023/07/01 21:13:02;;;;;;;;;;;;;;;;;;5063834;28;19928;-46
2023/07/01 21:15:28;;;;;;;;;;;;;;;;;;5085389;28;19999;-45
2023/07/01 21:17:55;;;;;;;;;;;;;;;;;;5077056;28;20027;-43
2023/07/01 21:20:21;;;;;;;;;;;;;;;;;;5061491;28;19927;-45
2023/07/01 21:22:49;;;;;;;;;;;;;;;;;;5064540;28;20205;-44
2023/07/01 21:25:15;;;;;;;;;;;;;;;;;;5054366;28;19931;-45
2023/07/01 21:27:41;;;;;;;;;;;;;;;;;;5066207;28;19919;-44
2023/07/01 21:30:07;;;;;;;;;;;;;;;;;;5066107;28;19973;-43
2023/07/01 21:32:33;;;;;;;;;;;;;;;;;;5066460;28;19923;-48
2023/07/01 21:34:59;;;;;;;;;;;;;;;;;;5065456;28;20363;-45
2023/07/01 21:37:25;;;;;;;;;;;;;;;;;;5066075;28;19923;-45
2023/07/01 21:39:50;;;;;;;;;;;;;;;;;;5065614;28;20389;-48
2023/07/01 21:42:18;;;;;;;;;;;;;;;;;;5066046;28;19995;-47